CheckWX is a tool to help pilots better visualize weather data.  It is not intended as a substitute for an official pre-flight weather briefing.

09:28:09 UTC

ESTA METAR
Ängelholm-Helsingborg Airport
Ängelholm, Sweden
Current

38 mins ago

ESTA 200850Z 27010KT 9999 BKN016 04/02 Q1014
Observed
Feb-20 @ 08:50 UTC
Wind
  • 270° at 10 KTS
Visibility
10,000+ meters
Flight Rules
MVFR
Cloud Levels
  • Broken at 1,600' AGL
Temperature
C / 39°F
Dewpoint
C / 36°F
Humidity
87%
Altimeter
29.94" Hg
Pressure
1013.92 hPa
Previous

1 hour ago

ESTA 200820Z 26007KT 9999 BKN015 04/03 Q1013
Observed
Feb-20 @ 08:20 UTC
Wind
  • 260° at 7 KTS
Visibility
10,000+ meters
Flight Rules
MVFR
Cloud Levels
  • Broken at 1,500' AGL
Temperature
C / 39°F
Dewpoint
C / 37°F
Humidity
93%
Altimeter
29.91" Hg
Pressure
1012.92 hPa
Previous

2 hours ago

ESTA 200750Z 27009KT 9999 BKN014 04/03 Q1013
Observed
Feb-20 @ 07:50 UTC
Wind
  • 270° at 9 KTS
Visibility
10,000+ meters
Flight Rules
MVFR
Cloud Levels
  • Broken at 1,400' AGL
Temperature
C / 39°F
Dewpoint
C / 37°F
Humidity
93%
Altimeter
29.91" Hg
Pressure
1012.92 hPa